x

South Santa Rosa Is. Ca (46069) Wave Buoy

2:50 - Fri 20th Jan 2017 All times are PST. -8 hours from GMT.

  • Sig Wave height 13.4ft
  • Swell Direction
  • Peak Period 13s
  • Average Period 10s
  • Wind
    13mph, 16mph gusts
  • Sea Temp 57°f
  • Ar Temp 56°f
  • Sea Pressure 1009.1mb
  • South Santa Rosa Is. Ca
  • South Santa Rosa Is. Ca

More Historic Weather Station data

Upgrade to MSW Pro to gain access to the past 30 days of data for over 8000 Wavebouys and Weather Stations around the globe.

Join Pro

Comparision Forecast

View Surf forecast
   
Sex 01/20 2:50 13.5ft 13s 10s 13 16 mph 1009.1mb 57f 56f
1:50 13ft 14s 10s 13 16 mph 1009.4mb 57f 56f
12:50 14ft 13s 10s 11 13 mph 1010.1mb 57f 56f
Qui 01/19 11:50 11.5ft 13s 9s 16 18 mph 1011.3mb 57f 56f
10:50 12ft 12s 9s 16 18 mph 1012.1mb 57f 56f
9:50 10.5ft 14s 9s 13 16 mph 1012.2mb 57f 56f
8:50 11.5ft 13s 9s 13 16 mph 1012.9mb 57f 56f
7:50 10ft 12s 9s 11 16 mph 1012.6mb 57f 56f
6:50 9ft 13s 8s 13 16 mph 1013.2mb 57f 56f
5:50 9ft 13s 8s 16 18 mph 1012.9mb 57f 56f
3:50 9.5ft 13s 9s 9 11 mph 1012.8mb 57f 58f
2:50 10ft 13s 9s 9 13 mph 1013mb 58f 58f
1:50 10ft 13s 9s 9 13 mph 1013.2mb 57f 58f
12:50 11.5ft 13s 9s 9 11 mph 1014mb 57f 58f
11:50 11ft 13s 9s 11 13 mph 1015.2mb 57f 57f
10:50 10.5ft 11s 8s 11 16 mph 1015.2mb 57f 57f
9:50 10ft 13s 8s 11 13 mph 1015.3mb 57f 57f
8:50 10ft 13s 8s 11 16 mph 1015.1mb 57f 57f
7:50 10ft 13s 8s 13 18 mph 1014.4mb 57f 57f
6:50 9ft 13s 7s 16 20 mph 1013.6mb 57f 57f
5:50 9ft 13s 7s 16 20 mph 1013mb 57f 57f
4:50 8ft 13s 7s 16 22 mph 1012.9mb 57f 57f
3:50 8ft 13s 7s 18 20 mph 1013mb 57f 57f
2:50 7.5ft 14s 6s 18 22 mph 1013.4mb 57f 58f
1:50 8ft 12s 7s 20 25 mph 1013.8mb 57f 56f
12:50 6.5ft 14s 7s 18 22 mph 1014.8mb 57f 56f
Qua 01/18 11:50 6.5ft 14s 7s 13 16 mph 1015.9mb 57f 57f
10:50 6ft 14s 7s 16 20 mph 1016.4mb 57f 57f
9:50 8ft 14s 8s 20 25 mph 1015.7mb 57f 57f
8:50 7.5ft 14s 8s 20 25 mph 1015.8mb 57f 56f
7:50 7ft 15s 9s 20 25 mph 1016mb 57f 56f
6:50 7ft 15s 10s 20 22 mph 1016.9mb 57f 56f
5:50 8ft 15s 12s 16 20 mph 1017.7mb 57f 55f
4:50 8ft 14s 12s 9 13 mph 1019.4mb 57f 56f
3:50 8ft 14s 12s 2 4 mph 1019.8mb 57f 56f
2:50 6.5ft 15s 12s 2 4 mph 1020mb 57f 57f
1:50 7.5ft 15s 12s 4 7 mph 1020mb 57f 57f
12:50 7ft 15s 12s 11 13 mph 1019.5mb 57f 56f
11:50 7ft 15s 12s 11 13 mph 1020.4mb 57f 56f
10:50 7ft 15s 12s 9 11 mph 1021.2mb 57f 56f
9:50 6ft 15s 11s 9
mph
1021.4mb 57f 56f
8:50 5.5ft 14s 11s 4 7 mph 1021.8mb 57f 56f
7:50 6ft 15s 11s 7 9 mph 1021.4mb 57f 56f
6:50 5ft 15s 11s 4 7 mph 1021.2mb 57f 55f
5:50 5ft 16s 11s 9 13 mph 1020.9mb 57f 55f
4:50 5.5ft 15s 11s 7 9 mph 1020.3mb 57f 55f
3:50 5.5ft 14s 10s 7 11 mph 1020.4mb 57f 55f
2:50 5.5ft 13s 10s 7 9 mph 1020.4mb 57f 55f
1:50 5ft 13s 10s 4 7 mph 1020.4mb 57f 55f
12:50 5ft 12s 10s 4 7 mph 1020.5mb 57f 55f
Ter 01/17 11:50 5ft 12s 10s 4 7 mph 1020.9mb 57f 55f
10:50 5.5ft 11s 9s 7 9 mph 1021.5mb 57f 55f
9:50 5ft 14s 9s 9 11 mph 1021.3mb 57f 55f
8:50 5ft 13s 10s 11 13 mph 1021.2mb 57f 55f
7:50 5ft 13s 10s 9 13 mph 1020.9mb 57f 56f
6:50 5ft 13s 10s 4 7 mph 1020mb 57f 56f
5:50 5ft 14s 10s 7 9 mph 1020mb 58f 56f
4:50 5ft 13s 10s 9 11 mph 1019.7mb 58f 56f
3:50 5ft 13s 10s 7 9 mph 1019.3mb 58f 56f
2:50 5.5ft 14s 10s 7 9 mph 1019.4mb 58f 56f
1:50 6ft 14s 10s 9 13 mph 1019.5mb 58f 56f
12:50 5ft 13s 9s 13 16 mph 1019.7mb 58f 56f
11:50 6ft 14s 9s 2 4 mph 1018.9mb 58f 56f
10:50 6.5ft 14s 9s 7
mph
1019.9mb 57f 56f
9:50 7ft 14s 10s 4 7 mph 1019.7mb 57f 56f
8:50 5.5ft 15s 9s 7 9 mph 1019.4mb 57f 56f
7:50 7ft 11s 10s 4 7 mph 1019mb 57f 56f
6:50 6.5ft 14s 10s 7 9 mph 1018.6mb 57f 55f
5:50 7ft 15s 10s 7
mph
1018.3mb 57f 55f
4:50 6.5ft 15s 11s 9 11 mph 1018.1mb 57f 55f
3:50 7ft 15s 11s 7 9 mph 1018.1mb 57f 55f
2:50 7ft 15s 11s 11 13 mph 1018.2mb 57f 55f
1:50 7ft 15s 11s 9 11 mph 1018mb 57f 55f
12:50 7ft 16s 11s 9 11 mph 1017.7mb 57f 55f
Seg 01/16 11:50 5.5ft 16s 9s 9 11 mph 1018.2mb 57f 55f
10:50 7ft 15s 10s 11 13 mph 1018.6mb 57f 55f
9:50 8ft 16s 11s 9
mph
1018.3mb 57f 55f
8:50 7ft 16s 11s 9 11 mph 1017.9mb 57f 55f
7:50 7.5ft 16s 11s 11 13 mph 1017.8mb 57f 55f
6:50 8ft 16s 11s 11 16 mph 1017.4mb 57f 55f
5:50 7.5ft 16s 11s 13 16 mph 1017.7mb 57f 55f
4:50 7ft 17s 11s 11 16 mph 1017.6mb 58f 56f
3:50 7ft 16s 10s 11 13 mph 1017.6mb 58f 56f
2:50 7ft 16s 10s 11 13 mph 1017.7mb 58f 56f
1:50 7ft 16s 10s 11 13 mph 1017.8mb 58f 56f
12:50 7ft 16s 10s 11 13 mph 1018.2mb 58f 56f